Hyannis, MA

10:48 AM EDT on April 21, 2015 (GMT -0400)
Megan Road | | Change Station
CLOSE
Current Station
Personal Weather Station
Location: Barnstable, MA
Elevation: 56 ft
Nearby Weather Stations

Elev 56 ft 41.66 °N, 70.30 °W | Updated 4 seconds ago

Fog
Fog
55.6 °F
Feels Like 55.6 °F
N
7.2
Wind Variable Wind from SSE
Gusts 7.4 mph

Today
High -- | Low -- °F
--% Chance of Precip.
Yesterday
High -- | Low -- °F
Precip. -- in
5:52 AM 7:28 PM
Waxing Crescent, 11% visible
Pressure 29.56 in
Visibility 0.5 miles
Clouds
Dew Point 55 °F
Humidity 97%
Rainfall 0.00 in
Snow Depth Not available.
UV 2.0 out of 12
Pollen 7.60 out of 12
Air Quality Not available.
Flu Activity Widespread
SPECI KHYA 211439Z 18008KT 1/2SM FG VV002 11/11 A2956 RMK AO2 T01110111

More Conditions Fewer Conditions

Pressure 29.56 in
Visibility 0.5 miles
Clouds
Dew Point 55 °F
Humidity 97%
Rainfall 0.00 in
Snow Depth Not available.
UV 2.0 out of 12
Pollen 7.60 out of 12
Air Quality Not available.
Flu Activity Widespread
SPECI KHYA 211439Z 18008KT 1/2SM FG VV002 11/11 A2956 RMK AO2 T01110111

More Conditions Fewer Conditions

10-Day Weather Forecast

Almanac

Astronomy

Apr. 21, 2015 Rise Set
Actual Time
Civil Twilight
Nautical Twilight
Astronomical Twilight
Moon
Length of Visible Light
Length of Day
Tomorrow will be .
, % of the Moon is Illuminated

Today's Extremes

State Highs State Lows

Community

WunderPhotos

Upload Photos

1,815,413 photos uploaded!

WunderBlogs® & News

Nearby

Air Quality

  Air Quality AQ Index Pollutant
Not available.

Snow Depth

Station Depth Elevation

Earthquake Activity

City Distance Mag. Time & Date
Minimum magnitude displayed is 2.5.

Coastal Water Temperatures

Place Temperature

Stations

Nearby Weather Stations

Station Location Temp. Windchill Dew Point Humidity Wind Precip. Elev Updated Type